sensor_id;sensor_type;location;lat;lon;timestamp;P1;durP1;ratioP1;P2;durP2;ratioP2
20828;SDS011;10575;50.124;8.582;2022-09-09T00:01:08;2.65;;;1.77;;
20828;SDS011;10575;50.124;8.582;2022-09-09T00:04:00;3.25;;;1.77;;
20828;SDS011;10575;50.124;8.582;2022-09-09T00:09:21;5.22;;;2.03;;
20828;SDS011;10575;50.124;8.582;2022-09-09T00:11:53;4.18;;;1.60;;
20828;SDS011;10575;50.124;8.582;2022-09-09T00:14:41;2.78;;;1.42;;
20828;SDS011;10575;50.124;8.582;2022-09-09T00:17:44;1.80;;;1.38;;
20828;SDS011;10575;50.124;8.582;2022-09-09T00:23:27;2.92;;;1.70;;
20828;SDS011;10575;50.124;8.582;2022-09-09T00:26:07;4.18;;;1.63;;
20828;SDS011;10575;50.124;8.582;2022-09-09T00:31:35;1.85;;;1.40;;
20828;SDS011;10575;50.124;8.582;2022-09-09T00:34:12;2.30;;;1.75;;
20828;SDS011;10575;50.124;8.582;2022-09-09T00:36:46;2.80;;;1.45;;
20828;SDS011;10575;50.124;8.582;2022-09-09T00:42:17;1.85;;;1.40;;
20828;SDS011;10575;50.124;8.582;2022-09-09T00:44:51;4.43;;;1.50;;
20828;SDS011;10575;50.124;8.582;2022-09-09T00:50:16;3.03;;;1.80;;
20828;SDS011;10575;50.124;8.582;2022-09-09T00:53:10;5.13;;;2.00;;
20828;SDS011;10575;50.124;8.582;2022-09-09T00:56:21;2.08;;;1.67;;
20828;SDS011;10575;50.124;8.582;2022-09-09T00:58:50;5.82;;;1.65;;
20828;SDS011;10575;50.124;8.582;2022-09-09T01:01:33;3.70;;;1.92;;
20828;SDS011;10575;50.124;8.582;2022-09-09T01:04:00;2.10;;;1.73;;
20828;SDS011;10575;50.124;8.582;2022-09-09T01:06:30;4.72;;;1.70;;
20828;SDS011;10575;50.124;8.582;2022-09-09T01:11:55;3.60;;;1.55;;
20828;SDS011;10575;50.124;8.582;2022-09-09T01:17:09;3.58;;;1.80;;
20828;SDS011;10575;50.124;8.582;2022-09-09T01:24:47;3.80;;;1.40;;
20828;SDS011;10575;50.124;8.582;2022-09-09T01:27:34;2.15;;;1.42;;
20828;SDS011;10575;50.124;8.582;2022-09-09T01:30:00;3.13;;;1.25;;
20828;SDS011;10575;50.124;8.582;2022-09-09T01:32:37;3.28;;;1.42;;
20828;SDS011;10575;50.124;8.582;2022-09-09T01:35:18;2.78;;;1.75;;
20828;SDS011;10575;50.124;8.582;2022-09-09T01:38:04;4.32;;;1.90;;
20828;SDS011;10575;50.124;8.582;2022-09-09T01:40:30;2.83;;;1.58;;
20828;SDS011;10575;50.124;8.582;2022-09-09T01:42:57;2.58;;;1.38;;
20828;SDS011;10575;50.124;8.582;2022-09-09T01:45:23;3.15;;;1.65;;
20828;SDS011;10575;50.124;8.582;2022-09-09T01:47:49;3.88;;;1.73;;
20828;SDS011;10575;50.124;8.582;2022-09-09T01:50:16;1.67;;;1.38;;
20828;SDS011;10575;50.124;8.582;2022-09-09T01:52:42;2.38;;;1.45;;
20828;SDS011;10575;50.124;8.582;2022-09-09T01:55:10;1.98;;;1.30;;
20828;SDS011;10575;50.124;8.582;2022-09-09T01:57:42;2.60;;;1.70;;
20828;SDS011;10575;50.124;8.582;2022-09-09T02:00:16;2.25;;;1.40;;
20828;SDS011;10575;50.124;8.582;2022-09-09T02:02:49;2.95;;;2.00;;
20828;SDS011;10575;50.124;8.582;2022-09-09T02:08:12;3.72;;;1.45;;
20828;SDS011;10575;50.124;8.582;2022-09-09T02:10:46;5.72;;;2.03;;
20828;SDS011;10575;50.124;8.582;2022-09-09T02:13:17;1.65;;;1.55;;
20828;SDS011;10575;50.124;8.582;2022-09-09T02:15:56;4.07;;;1.88;;
20828;SDS011;10575;50.124;8.582;2022-09-09T02:18:41;5.95;;;1.80;;
20828;SDS011;10575;50.124;8.582;2022-09-09T02:21:18;4.03;;;1.85;;
20828;SDS011;10575;50.124;8.582;2022-09-09T02:23:44;3.63;;;1.70;;
20828;SDS011;10575;50.124;8.582;2022-09-09T02:26:13;3.13;;;1.73;;
20828;SDS011;10575;50.124;8.582;2022-09-09T02:28:45;5.70;;;2.03;;
20828;SDS011;10575;50.124;8.582;2022-09-09T02:31:13;2.33;;;1.60;;
20828;SDS011;10575;50.124;8.582;2022-09-09T02:33:45;3.95;;;1.55;;
20828;SDS011;10575;50.124;8.582;2022-09-09T02:36:31;4.20;;;1.90;;
20828;SDS011;10575;50.124;8.582;2022-09-09T02:38:59;3.97;;;1.65;;
20828;SDS011;10575;50.124;8.582;2022-09-09T02:41:26;6.63;;;2.45;;
20828;SDS011;10575;50.124;8.582;2022-09-09T02:43:57;4.18;;;1.90;;
20828;SDS011;10575;50.124;8.582;2022-09-09T02:46:24;4.43;;;1.90;;
20828;SDS011;10575;50.124;8.582;2022-09-09T02:49:09;4.80;;;1.92;;
20828;SDS011;10575;50.124;8.582;2022-09-09T02:52:00;2.30;;;1.83;;
20828;SDS011;10575;50.124;8.582;2022-09-09T02:54:31;5.13;;;1.75;;
20828;SDS011;10575;50.124;8.582;2022-09-09T02:57:31;5.00;;;2.03;;
20828;SDS011;10575;50.124;8.582;2022-09-09T02:59:52;3.65;;;2.05;;
20828;SDS011;10575;50.124;8.582;2022-09-09T03:02:22;3.33;;;1.80;;
20828;SDS011;10575;50.124;8.582;2022-09-09T03:04:48;3.85;;;1.70;;
20828;SDS011;10575;50.124;8.582;2022-09-09T03:07:16;4.45;;;1.83;;
20828;SDS011;10575;50.124;8.582;2022-09-09T03:09:43;3.13;;;1.98;;
20828;SDS011;10575;50.124;8.582;2022-09-09T03:12:09;3.85;;;1.73;;
20828;SDS011;10575;50.124;8.582;2022-09-09T03:14:36;4.53;;;1.98;;
20828;SDS011;10575;50.124;8.582;2022-09-09T03:17:03;6.43;;;1.88;;
20828;SDS011;10575;50.124;8.582;2022-09-09T03:19:29;5.63;;;2.03;;
20828;SDS011;10575;50.124;8.582;2022-09-09T03:21:55;3.78;;;1.70;;
20828;SDS011;10575;50.124;8.582;2022-09-09T03:24:20;4.53;;;2.08;;
20828;SDS011;10575;50.124;8.582;2022-09-09T03:26:47;2.50;;;1.63;;
20828;SDS011;10575;50.124;8.582;2022-09-09T03:29:13;4.55;;;1.92;;
20828;SDS011;10575;50.124;8.582;2022-09-09T03:31:39;4.80;;;1.90;;
20828;SDS011;10575;50.124;8.582;2022-09-09T03:34:05;2.78;;;1.80;;
20828;SDS011;10575;50.124;8.582;2022-09-09T03:36:32;4.07;;;1.65;;
20828;SDS011;10575;50.124;8.582;2022-09-09T03:38:58;3.50;;;2.00;;
20828;SDS011;10575;50.124;8.582;2022-09-09T03:41:24;5.45;;;1.98;;
20828;SDS011;10575;50.124;8.582;2022-09-09T03:43:51;6.85;;;2.17;;
20828;SDS011;10575;50.124;8.582;2022-09-09T03:46:20;4.70;;;2.45;;
20828;SDS011;10575;50.124;8.582;2022-09-09T03:48:47;3.92;;;2.40;;
20828;SDS011;10575;50.124;8.582;2022-09-09T03:51:13;2.90;;;1.63;;
20828;SDS011;10575;50.124;8.582;2022-09-09T03:53:40;3.30;;;1.80;;
20828;SDS011;10575;50.124;8.582;2022-09-09T03:56:05;7.03;;;2.30;;
20828;SDS011;10575;50.124;8.582;2022-09-09T03:58:32;4.95;;;1.88;;
20828;SDS011;10575;50.124;8.582;2022-09-09T04:01:05;4.25;;;2.05;;
20828;SDS011;10575;50.124;8.582;2022-09-09T04:03:33;7.07;;;2.55;;
20828;SDS011;10575;50.124;8.582;2022-09-09T04:05:59;4.05;;;1.95;;
20828;SDS011;10575;50.124;8.582;2022-09-09T04:08:27;4.95;;;2.17;;
20828;SDS011;10575;50.124;8.582;2022-09-09T04:10:52;4.70;;;2.22;;
20828;SDS011;10575;50.124;8.582;2022-09-09T04:13:22;5.25;;;2.15;;
20828;SDS011;10575;50.124;8.582;2022-09-09T04:15:51;5.28;;;1.83;;
20828;SDS011;10575;50.124;8.582;2022-09-09T04:18:18;4.05;;;2.05;;
20828;SDS011;10575;50.124;8.582;2022-09-09T04:20:51;5.43;;;2.10;;
20828;SDS011;10575;50.124;8.582;2022-09-09T04:23:18;4.75;;;2.10;;
20828;SDS011;10575;50.124;8.582;2022-09-09T04:25:45;4.38;;;2.13;;
20828;SDS011;10575;50.124;8.582;2022-09-09T04:28:12;4.03;;;2.10;;
20828;SDS011;10575;50.124;8.582;2022-09-09T04:30:41;4.45;;;2.38;;
20828;SDS011;10575;50.124;8.582;2022-09-09T04:33:08;4.55;;;2.13;;
20828;SDS011;10575;50.124;8.582;2022-09-09T04:35:38;4.45;;;2.45;;
20828;SDS011;10575;50.124;8.582;2022-09-09T04:38:04;4.03;;;2.30;;
20828;SDS011;10575;50.124;8.582;2022-09-09T04:40:32;6.18;;;2.55;;
20828;SDS011;10575;50.124;8.582;2022-09-09T04:42:58;3.95;;;2.00;;
20828;SDS011;10575;50.124;8.582;2022-09-09T04:45:25;3.95;;;2.10;;
20828;SDS011;10575;50.124;8.582;2022-09-09T04:47:51;3.10;;;1.55;;
20828;SDS011;10575;50.124;8.582;2022-09-09T04:50:17;5.55;;;2.50;;
20828;SDS011;10575;50.124;8.582;2022-09-09T04:52:43;6.80;;;2.28;;
20828;SDS011;10575;50.124;8.582;2022-09-09T04:55:09;5.65;;;2.10;;
20828;SDS011;10575;50.124;8.582;2022-09-09T04:57:34;2.15;;;1.85;;
20828;SDS011;10575;50.124;8.582;2022-09-09T05:00:00;4.13;;;2.13;;
20828;SDS011;10575;50.124;8.582;2022-09-09T05:02:27;4.55;;;2.47;;
20828;SDS011;10575;50.124;8.582;2022-09-09T05:04:52;6.78;;;2.25;;
20828;SDS011;10575;50.124;8.582;2022-09-09T05:07:18;6.10;;;2.35;;
20828;SDS011;10575;50.124;8.582;2022-09-09T05:09:44;4.00;;;2.25;;
20828;SDS011;10575;50.124;8.582;2022-09-09T05:12:10;5.60;;;2.50;;
20828;SDS011;10575;50.124;8.582;2022-09-09T05:14:36;6.88;;;2.95;;
20828;SDS011;10575;50.124;8.582;2022-09-09T05:17:02;7.93;;;2.13;;
20828;SDS011;10575;50.124;8.582;2022-09-09T05:19:28;4.63;;;2.13;;
20828;SDS011;10575;50.124;8.582;2022-09-09T05:21:53;6.72;;;2.33;;
20828;SDS011;10575;50.124;8.582;2022-09-09T05:24:19;3.22;;;1.95;;
20828;SDS011;10575;50.124;8.582;2022-09-09T05:26:44;4.40;;;2.22;;
20828;SDS011;10575;50.124;8.582;2022-09-09T05:29:10;3.33;;;2.22;;
20828;SDS011;10575;50.124;8.582;2022-09-09T05:31:35;4.63;;;2.42;;
20828;SDS011;10575;50.124;8.582;2022-09-09T05:34:01;9.70;;;2.10;;
20828;SDS011;10575;50.124;8.582;2022-09-09T05:36:27;6.13;;;2.28;;
20828;SDS011;10575;50.124;8.582;2022-09-09T05:38:52;4.05;;;1.80;;
20828;SDS011;10575;50.124;8.582;2022-09-09T05:41:21;5.85;;;2.28;;
20828;SDS011;10575;50.124;8.582;2022-09-09T05:43:47;5.88;;;1.65;;
20828;SDS011;10575;50.124;8.582;2022-09-09T05:46:14;3.90;;;2.28;;
20828;SDS011;10575;50.124;8.582;2022-09-09T05:48:49;4.25;;;2.35;;
20828;SDS011;10575;50.124;8.582;2022-09-09T05:51:17;8.70;;;2.20;;
20828;SDS011;10575;50.124;8.582;2022-09-09T05:53:46;7.60;;;2.30;;
20828;SDS011;10575;50.124;8.582;2022-09-09T05:56:17;4.25;;;1.90;;
20828;SDS011;10575;50.124;8.582;2022-09-09T05:58:44;6.90;;;2.00;;
20828;SDS011;10575;50.124;8.582;2022-09-09T06:03:42;4.30;;;1.85;;
20828;SDS011;10575;50.124;8.582;2022-09-09T06:06:10;4.35;;;1.65;;
20828;SDS011;10575;50.124;8.582;2022-09-09T06:08:38;7.18;;;2.00;;
20828;SDS011;10575;50.124;8.582;2022-09-09T06:11:06;4.90;;;2.05;;
20828;SDS011;10575;50.124;8.582;2022-09-09T06:13:33;6.57;;;1.90;;
20828;SDS011;10575;50.124;8.582;2022-09-09T06:16:00;6.60;;;1.98;;
20828;SDS011;10575;50.124;8.582;2022-09-09T06:18:26;3.88;;;1.70;;
20828;SDS011;10575;50.124;8.582;2022-09-09T06:20:55;5.28;;;1.67;;
20828;SDS011;10575;50.124;8.582;2022-09-09T06:23:22;2.65;;;1.98;;
20828;SDS011;10575;50.124;8.582;2022-09-09T06:25:47;4.65;;;1.65;;
20828;SDS011;10575;50.124;8.582;2022-09-09T06:28:14;4.32;;;1.50;;
20828;SDS011;10575;50.124;8.582;2022-09-09T06:30:40;3.05;;;1.90;;
20828;SDS011;10575;50.124;8.582;2022-09-09T06:33:07;4.30;;;1.80;;
20828;SDS011;10575;50.124;8.582;2022-09-09T06:35:32;6.32;;;2.08;;
20828;SDS011;10575;50.124;8.582;2022-09-09T06:37:58;6.68;;;1.88;;
20828;SDS011;10575;50.124;8.582;2022-09-09T06:40:24;5.95;;;2.05;;
20828;SDS011;10575;50.124;8.582;2022-09-09T06:42:50;3.78;;;1.45;;
20828;SDS011;10575;50.124;8.582;2022-09-09T06:45:16;2.78;;;1.25;;
20828;SDS011;10575;50.124;8.582;2022-09-09T06:47:42;3.17;;;1.35;;
20828;SDS011;10575;50.124;8.582;2022-09-09T06:50:08;7.30;;;1.70;;
20828;SDS011;10575;50.124;8.582;2022-09-09T06:52:35;6.55;;;1.95;;
20828;SDS011;10575;50.124;8.582;2022-09-09T06:55:01;5.10;;;1.52;;
20828;SDS011;10575;50.124;8.582;2022-09-09T06:57:27;2.15;;;1.20;;
20828;SDS011;10575;50.124;8.582;2022-09-09T06:59:53;5.35;;;1.42;;
20828;SDS011;10575;50.124;8.582;2022-09-09T07:02:18;5.07;;;1.50;;
20828;SDS011;10575;50.124;8.582;2022-09-09T07:04:44;6.60;;;1.35;;
20828;SDS011;10575;50.124;8.582;2022-09-09T07:07:10;13.60;;;2.03;;
20828;SDS011;10575;50.124;8.582;2022-09-09T07:09:38;5.78;;;1.40;;
20828;SDS011;10575;50.124;8.582;2022-09-09T07:12:04;2.17;;;1.20;;
20828;SDS011;10575;50.124;8.582;2022-09-09T07:14:31;6.72;;;1.48;;
20828;SDS011;10575;50.124;8.582;2022-09-09T07:16:57;3.60;;;1.48;;
20828;SDS011;10575;50.124;8.582;2022-09-09T07:19:23;4.80;;;2.47;;
20828;SDS011;10575;50.124;8.582;2022-09-09T07:21:48;5.80;;;1.45;;
20828;SDS011;10575;50.124;8.582;2022-09-09T07:24:14;2.75;;;1.45;;
20828;SDS011;10575;50.124;8.582;2022-09-09T07:26:40;7.47;;;1.58;;
20828;SDS011;10575;50.124;8.582;2022-09-09T07:29:06;2.00;;;1.50;;
20828;SDS011;10575;50.124;8.582;2022-09-09T07:31:34;9.60;;;1.88;;
20828;SDS011;10575;50.124;8.582;2022-09-09T07:34:02;2.75;;;1.27;;
20828;SDS011;10575;50.124;8.582;2022-09-09T07:36:30;5.95;;;1.90;;
20828;SDS011;10575;50.124;8.582;2022-09-09T07:39:01;3.15;;;1.50;;
20828;SDS011;10575;50.124;8.582;2022-09-09T07:41:30;6.25;;;1.42;;
20828;SDS011;10575;50.124;8.582;2022-09-09T07:44:09;5.53;;;1.30;;
20828;SDS011;10575;50.124;8.582;2022-09-09T07:46:37;7.22;;;1.85;;
20828;SDS011;10575;50.124;8.582;2022-09-09T07:49:04;5.20;;;1.70;;
20828;SDS011;10575;50.124;8.582;2022-09-09T07:51:31;3.22;;;1.20;;
20828;SDS011;10575;50.124;8.582;2022-09-09T07:54:02;3.03;;;1.38;;
20828;SDS011;10575;50.124;8.582;2022-09-09T07:56:31;7.22;;;1.88;;
20828;SDS011;10575;50.124;8.582;2022-09-09T07:58:57;3.42;;;1.58;;
20828;SDS011;10575;50.124;8.582;2022-09-09T08:01:29;4.30;;;1.70;;
20828;SDS011;10575;50.124;8.582;2022-09-09T08:03:57;4.53;;;1.40;;
20828;SDS011;10575;50.124;8.582;2022-09-09T08:06:26;3.72;;;1.30;;
20828;SDS011;10575;50.124;8.582;2022-09-09T08:08:52;5.88;;;1.65;;
20828;SDS011;10575;50.124;8.582;2022-09-09T08:11:19;3.38;;;1.42;;
20828;SDS011;10575;50.124;8.582;2022-09-09T08:13:46;2.83;;;1.10;;
20828;SDS011;10575;50.124;8.582;2022-09-09T08:16:13;6.30;;;1.75;;
20828;SDS011;10575;50.124;8.582;2022-09-09T08:18:41;7.25;;;1.50;;
20828;SDS011;10575;50.124;8.582;2022-09-09T08:21:12;4.45;;;1.50;;
20828;SDS011;10575;50.124;8.582;2022-09-09T08:23:58;3.50;;;1.40;;
20828;SDS011;10575;50.124;8.582;2022-09-09T08:26:31;2.65;;;1.20;;
20828;SDS011;10575;50.124;8.582;2022-09-09T08:28:59;7.20;;;1.92;;
20828;SDS011;10575;50.124;8.582;2022-09-09T08:31:27;7.22;;;1.83;;
20828;SDS011;10575;50.124;8.582;2022-09-09T08:33:55;5.15;;;1.70;;
20828;SDS011;10575;50.124;8.582;2022-09-09T08:36:25;5.80;;;2.05;;
20828;SDS011;10575;50.124;8.582;2022-09-09T08:38:53;6.40;;;1.85;;
20828;SDS011;10575;50.124;8.582;2022-09-09T08:43:52;5.55;;;1.65;;
20828;SDS011;10575;50.124;8.582;2022-09-09T08:46:57;6.13;;;2.03;;
20828;SDS011;10575;50.124;8.582;2022-09-09T08:52:16;3.60;;;1.52;;
20828;SDS011;10575;50.124;8.582;2022-09-09T08:54:48;6.97;;;1.70;;
20828;SDS011;10575;50.124;8.582;2022-09-09T08:57:17;9.80;;;2.08;;
20828;SDS011;10575;50.124;8.582;2022-09-09T08:59:53;6.53;;;1.95;;
20828;SDS011;10575;50.124;8.582;2022-09-09T09:02:24;5.97;;;2.30;;
20828;SDS011;10575;50.124;8.582;2022-09-09T09:05:19;6.45;;;1.83;;
20828;SDS011;10575;50.124;8.582;2022-09-09T09:08:04;6.40;;;1.90;;
20828;SDS011;10575;50.124;8.582;2022-09-09T09:10:46;5.85;;;1.80;;
20828;SDS011;10575;50.124;8.582;2022-09-09T09:13:15;6.10;;;2.03;;
20828;SDS011;10575;50.124;8.582;2022-09-09T09:15:43;4.55;;;1.88;;
20828;SDS011;10575;50.124;8.582;2022-09-09T09:18:12;3.92;;;1.67;;
20828;SDS011;10575;50.124;8.582;2022-09-09T09:23:20;9.57;;;2.10;;
20828;SDS011;10575;50.124;8.582;2022-09-09T09:25:48;3.17;;;1.45;;
20828;SDS011;10575;50.124;8.582;2022-09-09T09:28:17;9.10;;;2.00;;
20828;SDS011;10575;50.124;8.582;2022-09-09T09:36:11;4.68;;;1.70;;
20828;SDS011;10575;50.124;8.582;2022-09-09T09:38:40;4.13;;;1.23;;
20828;SDS011;10575;50.124;8.582;2022-09-09T09:41:34;5.35;;;1.40;;
20828;SDS011;10575;50.124;8.582;2022-09-09T09:44:05;4.18;;;1.52;;
20828;SDS011;10575;50.124;8.582;2022-09-09T09:46:46;4.07;;;1.45;;
20828;SDS011;10575;50.124;8.582;2022-09-09T09:49:11;7.15;;;1.40;;
20828;SDS011;10575;50.124;8.582;2022-09-09T09:51:38;8.63;;;1.70;;
20828;SDS011;10575;50.124;8.582;2022-09-09T09:56:34;5.43;;;1.40;;
20828;SDS011;10575;50.124;8.582;2022-09-09T09:59:00;2.15;;;1.20;;
20828;SDS011;10575;50.124;8.582;2022-09-09T10:01:27;5.93;;;1.50;;
20828;SDS011;10575;50.124;8.582;2022-09-09T10:04:01;6.05;;;1.40;;
20828;SDS011;10575;50.124;8.582;2022-09-09T10:06:45;4.15;;;1.25;;
20828;SDS011;10575;50.124;8.582;2022-09-09T10:09:22;5.80;;;1.48;;
20828;SDS011;10575;50.124;8.582;2022-09-09T10:14:52;3.90;;;1.35;;
20828;SDS011;10575;50.124;8.582;2022-09-09T10:17:46;6.25;;;1.30;;
20828;SDS011;10575;50.124;8.582;2022-09-09T10:20:45;9.75;;;1.65;;
20828;SDS011;10575;50.124;8.582;2022-09-09T10:32:30;6.88;;;2.45;;
20828;SDS011;10575;50.124;8.582;2022-09-09T10:55:02;8.25;;;2.50;;
20828;SDS011;10575;50.124;8.582;2022-09-09T10:57:46;4.97;;;2.30;;
20828;SDS011;10575;50.124;8.582;2022-09-09T11:00:21;11.85;;;3.50;;
20828;SDS011;10575;50.124;8.582;2022-09-09T11:02:50;8.63;;;2.85;;
20828;SDS011;10575;50.124;8.582;2022-09-09T11:05:29;11.68;;;2.95;;
20828;SDS011;10575;50.124;8.582;2022-09-09T11:10:34;10.82;;;2.90;;
20828;SDS011;10575;50.124;8.582;2022-09-09T11:13:14;6.22;;;2.35;;
20828;SDS011;10575;50.124;8.582;2022-09-09T11:15:52;9.45;;;2.20;;
20828;SDS011;10575;50.124;8.582;2022-09-09T11:18:24;7.35;;;1.65;;
20828;SDS011;10575;50.124;8.582;2022-09-09T11:20:56;3.08;;;0.88;;
20828;SDS011;10575;50.124;8.582;2022-09-09T11:23:42;1.90;;;0.95;;
20828;SDS011;10575;50.124;8.582;2022-09-09T11:26:15;2.65;;;1.02;;
20828;SDS011;10575;50.124;8.582;2022-09-09T11:32:05;6.30;;;1.25;;
20828;SDS011;10575;50.124;8.582;2022-09-09T11:41:16;5.70;;;1.75;;
20828;SDS011;10575;50.124;8.582;2022-09-09T11:43:44;2.90;;;1.50;;
20828;SDS011;10575;50.124;8.582;2022-09-09T11:46:14;2.75;;;1.70;;
20828;SDS011;10575;50.124;8.582;2022-09-09T11:48:46;4.28;;;1.50;;
20828;SDS011;10575;50.124;8.582;2022-09-09T11:53:50;5.88;;;1.92;;
20828;SDS011;10575;50.124;8.582;2022-09-09T11:59:28;3.83;;;1.58;;
20828;SDS011;10575;50.124;8.582;2022-09-09T12:01:57;2.47;;;1.40;;
20828;SDS011;10575;50.124;8.582;2022-09-09T12:04:30;3.10;;;1.50;;
20828;SDS011;10575;50.124;8.582;2022-09-09T12:07:30;5.20;;;1.50;;
20828;SDS011;10575;50.124;8.582;2022-09-09T12:12:42;3.92;;;0.95;;
20828;SDS011;10575;50.124;8.582;2022-09-09T12:17:41;4.38;;;1.30;;
20828;SDS011;10575;50.124;8.582;2022-09-09T12:20:19;4.03;;;1.30;;
20828;SDS011;10575;50.124;8.582;2022-09-09T12:22:58;3.45;;;1.52;;
20828;SDS011;10575;50.124;8.582;2022-09-09T12:26:04;2.38;;;1.10;;
20828;SDS011;10575;50.124;8.582;2022-09-09T12:28:54;4.57;;;1.10;;
20828;SDS011;10575;50.124;8.582;2022-09-09T12:34:10;4.30;;;1.20;;
20828;SDS011;10575;50.124;8.582;2022-09-09T12:36:40;4.30;;;1.13;;
20828;SDS011;10575;50.124;8.582;2022-09-09T12:39:18;7.88;;;1.33;;
20828;SDS011;10575;50.124;8.582;2022-09-09T12:41:53;4.70;;;1.52;;
20828;SDS011;10575;50.124;8.582;2022-09-09T12:44:21;4.10;;;1.10;;
20828;SDS011;10575;50.124;8.582;2022-09-09T12:46:47;7.22;;;1.30;;
20828;SDS011;10575;50.124;8.582;2022-09-09T12:49:27;3.83;;;1.10;;
20828;SDS011;10575;50.124;8.582;2022-09-09T12:52:09;5.53;;;0.85;;
20828;SDS011;10575;50.124;8.582;2022-09-09T12:54:42;7.35;;;1.23;;
20828;SDS011;10575;50.124;8.582;2022-09-09T12:57:11;3.95;;;1.02;;
20828;SDS011;10575;50.124;8.582;2022-09-09T12:59:39;6.30;;;1.50;;
20828;SDS011;10575;50.124;8.582;2022-09-09T13:05:17;6.15;;;1.58;;
20828;SDS011;10575;50.124;8.582;2022-09-09T13:07:45;4.82;;;1.30;;
20828;SDS011;10575;50.124;8.582;2022-09-09T13:10:12;5.25;;;1.50;;
20828;SDS011;10575;50.124;8.582;2022-09-09T13:12:39;5.18;;;1.40;;
20828;SDS011;10575;50.124;8.582;2022-09-09T13:15:16;3.00;;;1.02;;
20828;SDS011;10575;50.124;8.582;2022-09-09T13:17:50;2.40;;;1.15;;
20828;SDS011;10575;50.124;8.582;2022-09-09T13:20:18;1.90;;;0.90;;
20828;SDS011;10575;50.124;8.582;2022-09-09T13:22:46;4.85;;;1.10;;
20828;SDS011;10575;50.124;8.582;2022-09-09T13:28:03;2.97;;;0.90;;
20828;SDS011;10575;50.124;8.582;2022-09-09T13:30:31;3.17;;;1.05;;
20828;SDS011;10575;50.124;8.582;2022-09-09T13:33:03;4.18;;;1.23;;
20828;SDS011;10575;50.124;8.582;2022-09-09T13:35:57;5.32;;;0.90;;
20828;SDS011;10575;50.124;8.582;2022-09-09T13:38:35;3.40;;;1.20;;
20828;SDS011;10575;50.124;8.582;2022-09-09T13:41:20;1.90;;;1.15;;
20828;SDS011;10575;50.124;8.582;2022-09-09T13:43:48;4.28;;;0.88;;
20828;SDS011;10575;50.124;8.582;2022-09-09T13:46:30;3.03;;;0.85;;
20828;SDS011;10575;50.124;8.582;2022-09-09T13:54:02;0.90;;;0.60;;
20828;SDS011;10575;50.124;8.582;2022-09-09T13:56:32;0.90;;;0.57;;
20828;SDS011;10575;50.124;8.582;2022-09-09T13:59:00;2.33;;;0.90;;
20828;SDS011;10575;50.124;8.582;2022-09-09T14:01:26;2.30;;;0.70;;
20828;SDS011;10575;50.124;8.582;2022-09-09T14:03:52;1.42;;;0.68;;
20828;SDS011;10575;50.124;8.582;2022-09-09T14:06:18;1.25;;;0.60;;
20828;SDS011;10575;50.124;8.582;2022-09-09T14:08:44;1.92;;;0.75;;
20828;SDS011;10575;50.124;8.582;2022-09-09T14:11:11;1.55;;;0.73;;
20828;SDS011;10575;50.124;8.582;2022-09-09T14:13:37;2.03;;;0.60;;
20828;SDS011;10575;50.124;8.582;2022-09-09T14:16:03;0.85;;;0.52;;
20828;SDS011;10575;50.124;8.582;2022-09-09T14:18:28;0.95;;;0.70;;
20828;SDS011;10575;50.124;8.582;2022-09-09T14:20:54;3.47;;;0.80;;
20828;SDS011;10575;50.124;8.582;2022-09-09T14:23:20;2.25;;;0.80;;
20828;SDS011;10575;50.124;8.582;2022-09-09T14:25:47;3.92;;;0.63;;
20828;SDS011;10575;50.124;8.582;2022-09-09T14:28:14;2.35;;;0.80;;
20828;SDS011;10575;50.124;8.582;2022-09-09T14:30:40;1.75;;;0.55;;
20828;SDS011;10575;50.124;8.582;2022-09-09T14:33:07;2.75;;;0.88;;
20828;SDS011;10575;50.124;8.582;2022-09-09T14:35:34;2.58;;;0.73;;
20828;SDS011;10575;50.124;8.582;2022-09-09T14:38:01;2.92;;;0.82;;
20828;SDS011;10575;50.124;8.582;2022-09-09T14:40:27;2.30;;;0.80;;
20828;SDS011;10575;50.124;8.582;2022-09-09T14:42:53;1.80;;;0.60;;
20828;SDS011;10575;50.124;8.582;2022-09-09T14:45:19;3.10;;;1.00;;
20828;SDS011;10575;50.124;8.582;2022-09-09T14:47:46;3.53;;;0.70;;
20828;SDS011;10575;50.124;8.582;2022-09-09T14:50:12;2.67;;;0.93;;
20828;SDS011;10575;50.124;8.582;2022-09-09T14:52:37;2.92;;;0.70;;
20828;SDS011;10575;50.124;8.582;2022-09-09T14:55:03;3.10;;;0.70;;
20828;SDS011;10575;50.124;8.582;2022-09-09T14:57:29;1.88;;;0.75;;
20828;SDS011;10575;50.124;8.582;2022-09-09T14:59:56;5.00;;;0.88;;
20828;SDS011;10575;50.124;8.582;2022-09-09T15:02:21;2.58;;;0.95;;
20828;SDS011;10575;50.124;8.582;2022-09-09T15:04:47;1.50;;;0.63;;
20828;SDS011;10575;50.124;8.582;2022-09-09T15:07:14;1.45;;;0.60;;
20828;SDS011;10575;50.124;8.582;2022-09-09T15:09:41;1.30;;;0.60;;
20828;SDS011;10575;50.124;8.582;2022-09-09T15:12:07;1.98;;;0.68;;
20828;SDS011;10575;50.124;8.582;2022-09-09T15:14:32;3.22;;;0.70;;
20828;SDS011;10575;50.124;8.582;2022-09-09T15:16:59;4.70;;;0.90;;
20828;SDS011;10575;50.124;8.582;2022-09-09T15:19:24;1.45;;;0.77;;
20828;SDS011;10575;50.124;8.582;2022-09-09T15:21:50;1.58;;;0.63;;
20828;SDS011;10575;50.124;8.582;2022-09-09T15:24:15;2.30;;;0.90;;
20828;SDS011;10575;50.124;8.582;2022-09-09T15:26:41;3.03;;;0.70;;
20828;SDS011;10575;50.124;8.582;2022-09-09T15:29:06;1.85;;;0.50;;
20828;SDS011;10575;50.124;8.582;2022-09-09T15:31:33;2.95;;;0.80;;
20828;SDS011;10575;50.124;8.582;2022-09-09T15:34:00;2.90;;;1.00;;
20828;SDS011;10575;50.124;8.582;2022-09-09T15:36:29;6.03;;;1.40;;
20828;SDS011;10575;50.124;8.582;2022-09-09T15:38:58;3.00;;;0.80;;
20828;SDS011;10575;50.124;8.582;2022-09-09T15:41:24;1.00;;;0.47;;
20828;SDS011;10575;50.124;8.582;2022-09-09T15:43:52;3.70;;;0.70;;
20828;SDS011;10575;50.124;8.582;2022-09-09T15:46:26;2.28;;;0.90;;
20828;SDS011;10575;50.124;8.582;2022-09-09T15:49:03;3.28;;;0.70;;
20828;SDS011;10575;50.124;8.582;2022-09-09T15:51:29;1.58;;;0.70;;
20828;SDS011;10575;50.124;8.582;2022-09-09T15:53:56;2.85;;;0.90;;
20828;SDS011;10575;50.124;8.582;2022-09-09T15:56:23;2.08;;;0.55;;
20828;SDS011;10575;50.124;8.582;2022-09-09T15:58:49;4.32;;;0.80;;
20828;SDS011;10575;50.124;8.582;2022-09-09T16:01:14;1.23;;;0.68;;
20828;SDS011;10575;50.124;8.582;2022-09-09T16:03:41;6.38;;;1.20;;
20828;SDS011;10575;50.124;8.582;2022-09-09T16:06:08;4.07;;;0.80;;
20828;SDS011;10575;50.124;8.582;2022-09-09T16:08:35;5.22;;;1.17;;
20828;SDS011;10575;50.124;8.582;2022-09-09T16:11:06;1.73;;;0.77;;
20828;SDS011;10575;50.124;8.582;2022-09-09T16:13:37;3.78;;;0.70;;
20828;SDS011;10575;50.124;8.582;2022-09-09T16:16:07;4.00;;;0.93;;
20828;SDS011;10575;50.124;8.582;2022-09-09T16:18:45;2.45;;;0.90;;
20828;SDS011;10575;50.124;8.582;2022-09-09T16:21:16;1.55;;;0.80;;
20828;SDS011;10575;50.124;8.582;2022-09-09T16:23:44;4.93;;;0.80;;
20828;SDS011;10575;50.124;8.582;2022-09-09T16:26:10;1.55;;;0.68;;
20828;SDS011;10575;50.124;8.582;2022-09-09T16:28:37;2.38;;;1.10;;
20828;SDS011;10575;50.124;8.582;2022-09-09T16:31:05;1.88;;;0.70;;
20828;SDS011;10575;50.124;8.582;2022-09-09T16:33:35;2.42;;;1.10;;
20828;SDS011;10575;50.124;8.582;2022-09-09T16:36:05;2.50;;;0.90;;
20828;SDS011;10575;50.124;8.582;2022-09-09T16:38:31;2.15;;;0.80;;
20828;SDS011;10575;50.124;8.582;2022-09-09T16:41:01;3.33;;;0.82;;
20828;SDS011;10575;50.124;8.582;2022-09-09T16:43:29;1.73;;;0.88;;
20828;SDS011;10575;50.124;8.582;2022-09-09T16:45:55;2.13;;;0.80;;
20828;SDS011;10575;50.124;8.582;2022-09-09T16:48:21;8.23;;;0.90;;
20828;SDS011;10575;50.124;8.582;2022-09-09T16:50:46;2.25;;;0.85;;
20828;SDS011;10575;50.124;8.582;2022-09-09T16:53:12;1.15;;;0.70;;
20828;SDS011;10575;50.124;8.582;2022-09-09T16:55:39;1.88;;;0.90;;
20828;SDS011;10575;50.124;8.582;2022-09-09T16:58:05;0.60;;;0.60;;
20828;SDS011;10575;50.124;8.582;2022-09-09T17:00:32;4.00;;;0.90;;
20828;SDS011;10575;50.124;8.582;2022-09-09T17:02:58;3.00;;;1.20;;